Terminal Aerodrome Forecast
Issued by NWS

Home | Current Version | Previous Version | Text Only | Print | Product List | Glossary On
Versions: 1 2 3 4 5 6 7 8 9 10 11 12 13 14 15 16 17 18 19 20 21 22 23 24 25 26 27 28 29 30 31 32
000
FTUS45 KBOU 170445 AAB
TAFAPA
TAF AMD
KAPA 170445Z 1705/1724 08008KT P6SM SCT018 BKN060
     FM170600 09010KT P6SM BKN010 OVC015
      TEMPO 1707/1711 3SM -FZDZSN BR OVC004
     FM171300 14006KT P6SM VCFG BKN012 OVC022
     FM171700 16007KT P6SM SCT035 BKN050
     FM172100 20008KT P6SM SCT060 BKN120=

USA.gov is the U.S. government's official web portal to all federal, state and local government web resources and services.